OI61 weather

Mount Carmel Health Heliport
Columbus, Ohio, United States

Public forecast

Using degrees Fahrenheit for public forecast. Weather courtesy of forecast.io.

METAR (pilot weather report)

Closest report is Bolton Field, 6.3 nm (11.6 km) WSW. Retrieved 2019/05/24 06:35 UTC (0 seconds ago):

KTZR 240635Z AUTO 27003KT 10SM CLR 17/15 A3009 RMK AO2 T01700151

TAF (pilot weather forecast)

Closest forecast is John Glenn Columbus International Airport, 6.5 nm (12.0 km) ENE. Retrieved 2019/05/24 06:36 UTC (0 seconds ago):

TAF KCMH 240535Z 2406/2506 32006KT P6SM FEW250 FM240700 35004KT P6SM FEW250 FM241300 VRB04KT P6SM SCT100 FM242200 00000KT P6SM SCT120